createdAt,value
2018-08-19T00:00:59.713Z,99088.77
2018-08-19T00:03:28.730Z,99088.27
2018-08-19T00:05:57.727Z,99086.59
2018-08-19T00:08:26.587Z,99088.53
2018-08-19T00:11:01.629Z,99081.91
2018-08-19T00:13:31.353Z,99083.84
2018-08-19T00:16:00.351Z,99090.76
2018-08-19T00:18:29.392Z,99093.47
2018-08-19T00:20:58.571Z,99097.78
2018-08-19T00:23:34.958Z,99107.81
2018-08-19T00:26:04.302Z,99109.25
2018-08-19T00:28:33.254Z,99112.84
2018-08-19T00:31:02.331Z,99104.47
2018-08-19T00:33:31.259Z,99106.19
2018-08-19T00:36:00.102Z,99097.69
2018-08-19T00:38:28.984Z,99100.62
2018-08-19T00:40:57.849Z,99093.48
2018-08-19T00:43:27.576Z,99095.98
2018-08-19T00:45:57.031Z,99090.73
2018-08-19T00:48:25.949Z,99098.31
2018-08-19T00:50:55.397Z,99090.44
2018-08-19T00:53:24.342Z,99092.80
2018-08-19T00:55:53.236Z,99082.42
2018-08-19T00:58:22.674Z,99083.60
2018-08-19T01:00:51.689Z,99090.45
2018-08-19T01:03:20.624Z,99087.89
2018-08-19T01:05:49.509Z,99088.79
2018-08-19T01:08:18.499Z,99089.95
2018-08-19T01:10:47.499Z,99090.16
2018-08-19T01:13:16.457Z,99093.00
2018-08-19T01:15:45.411Z,99095.47
2018-08-19T01:18:14.308Z,99091.50
2018-08-19T01:20:43.176Z,99097.80
2018-08-19T01:23:12.091Z,99096.59
2018-08-19T01:25:41.029Z,99099.19
2018-08-19T01:28:10.021Z,99102.73
2018-08-19T01:30:38.916Z,99096.25
2018-08-19T01:33:07.873Z,99093.53
2018-08-19T01:35:40.640Z,99090.30
2018-08-19T01:38:09.546Z,99085.31
2018-08-19T01:40:38.446Z,99090.81
2018-08-19T01:43:07.538Z,99088.22
2018-08-19T01:45:36.521Z,99090.38
2018-08-19T01:48:05.501Z,99086.50
2018-08-19T01:50:34.519Z,99085.40
2018-08-19T01:53:03.421Z,99082.03
2018-08-19T01:55:32.287Z,99079.41
2018-08-19T01:58:01.262Z,99075.62
2018-08-19T02:00:30.125Z,99078.09
2018-08-19T02:03:02.917Z,99080.48
2018-08-19T02:05:31.857Z,99074.45
2018-08-19T02:08:02.155Z,99075.16
2018-08-19T02:10:32.253Z,99078.19
2018-08-19T02:13:01.438Z,99082.00
2018-08-19T02:15:31.403Z,99078.87
2018-08-19T02:18:04.690Z,99072.37
2018-08-19T02:20:37.836Z,99076.91
2018-08-19T02:23:08.257Z,99077.48
2018-08-19T02:25:44.145Z,99077.32
2018-08-19T02:28:13.606Z,99072.27
2018-08-19T02:30:49.646Z,99075.47
2018-08-19T02:33:18.559Z,99072.25
2018-08-19T02:35:52.407Z,99072.20
2018-08-19T02:38:21.320Z,99080.13
2018-08-19T02:40:53.162Z,99073.58
2018-08-19T02:43:22.882Z,99079.91
2018-08-19T02:45:51.788Z,99085.70
2018-08-19T02:48:31.757Z,99083.06
2018-08-19T02:51:00.627Z,99077.71
2018-08-19T02:53:29.442Z,99094.31
2018-08-19T02:55:58.305Z,99098.11
2018-08-19T02:58:27.196Z,99095.42
2018-08-19T03:00:56.084Z,99099.83
2018-08-19T03:03:24.995Z,99099.41
2018-08-19T03:05:57.057Z,99109.14
2018-08-19T03:08:25.977Z,99109.20
2018-08-19T03:10:54.916Z,99111.40
2018-08-19T03:13:23.829Z,99112.97
2018-08-19T03:15:54.758Z,99120.08
2018-08-19T03:18:23.662Z,99117.99
2018-08-19T03:20:52.493Z,99110.66
2018-08-19T03:23:21.412Z,99113.58
2018-08-19T03:25:50.280Z,99106.68
2018-08-19T03:28:19.235Z,99103.58
2018-08-19T03:31:04.462Z,99098.66
2018-08-19T03:33:33.324Z,99101.92
2018-08-19T03:36:02.171Z,99102.81
2018-08-19T03:38:31.074Z,99106.92
2018-08-19T03:40:59.997Z,99109.20
2018-08-19T03:43:28.861Z,99108.63
2018-08-19T03:46:01.137Z,99112.13
2018-08-19T03:48:30.220Z,99113.55
2018-08-19T03:50:59.092Z,99110.18
2018-08-19T03:53:28.003Z,99110.67
2018-08-19T03:55:56.868Z,99117.17
2018-08-19T03:58:25.709Z,99116.94
2018-08-19T04:00:54.604Z,99118.06
2018-08-19T04:03:26.425Z,99125.64
2018-08-19T04:05:58.055Z,99133.70
2018-08-19T04:08:34.318Z,99134.08
2018-08-19T04:11:06.412Z,99138.36
2018-08-19T04:13:39.604Z,99134.17
2018-08-19T04:16:09.707Z,99135.75
2018-08-19T04:18:42.980Z,99136.36
2018-08-19T04:21:12.967Z,99143.14
2018-08-19T04:23:44.664Z,99139.20
2018-08-19T04:26:13.606Z,99146.36
2018-08-19T04:28:43.598Z,99149.97
2018-08-19T04:31:17.758Z,99149.20
2018-08-19T04:33:47.721Z,99150.73
2018-08-19T04:36:18.098Z,99149.17
2018-08-19T04:38:46.947Z,99148.67
2018-08-19T04:41:16.245Z,99143.72
2018-08-19T04:43:45.838Z,99145.11
2018-08-19T04:46:14.744Z,99146.00
2018-08-19T04:48:46.069Z,99143.34
2018-08-19T04:51:14.901Z,99152.12
2018-08-19T04:53:43.775Z,99154.75
2018-08-19T04:56:12.737Z,99159.06
2018-08-19T04:58:41.640Z,99162.95
2018-08-19T05:01:10.969Z,99163.36
2018-08-19T05:03:39.984Z,99157.89
2018-08-19T05:06:08.902Z,99158.75
2018-08-19T05:08:37.809Z,99166.83
2018-08-19T05:11:06.788Z,99167.99
2018-08-19T05:13:35.699Z,99177.55
2018-08-19T05:16:04.569Z,99169.78
2018-08-19T05:18:33.448Z,99172.13
2018-08-19T05:21:07.558Z,99174.84
2018-08-19T05:23:36.489Z,99176.45
2018-08-19T05:26:05.397Z,99179.13
2018-08-19T05:28:34.319Z,99186.28
2018-08-19T05:31:03.251Z,99182.34
2018-08-19T05:33:32.232Z,99183.90
2018-08-19T05:36:01.078Z,99190.02
2018-08-19T05:38:31.731Z,99191.34
2018-08-19T05:41:01.831Z,99191.12
2018-08-19T05:43:31.323Z,99191.49
2018-08-19T05:46:01.287Z,99188.75
2018-08-19T05:48:30.461Z,99187.58
2018-08-19T05:50:59.563Z,99186.35
2018-08-19T05:53:28.492Z,99185.20
2018-08-19T05:55:57.442Z,99186.64
2018-08-19T05:58:26.337Z,99183.20
2018-08-19T06:00:59.971Z,99178.75
2018-08-19T06:03:29.294Z,99177.33
2018-08-19T06:05:58.584Z,99180.08
2018-08-19T06:08:27.497Z,99176.99
2018-08-19T06:10:56.433Z,99175.09
2018-08-19T06:13:27.765Z,99171.88
2018-08-19T06:15:56.766Z,99168.55
2018-08-19T06:18:25.585Z,99172.19
2018-08-19T06:20:54.515Z,99177.47
2018-08-19T06:23:23.454Z,99170.59
2018-08-19T06:25:52.330Z,99173.88
2018-08-19T06:28:21.175Z,99178.00
2018-08-19T06:30:50.140Z,99174.89
2018-08-19T06:33:19.093Z,99177.17
2018-08-19T06:35:47.945Z,99188.42
2018-08-19T06:38:16.939Z,99190.09
2018-08-19T06:40:45.838Z,99182.42
2018-08-19T06:43:14.774Z,99179.09
2018-08-19T06:45:43.666Z,99186.21
2018-08-19T06:48:12.606Z,99180.72
2018-08-19T06:50:41.625Z,99177.67
2018-08-19T06:53:14.776Z,99180.75
2018-08-19T06:55:43.767Z,99175.17
2018-08-19T06:58:12.664Z,99172.10
2018-08-19T07:00:41.593Z,99172.48
2018-08-19T07:03:10.487Z,99166.23
2018-08-19T07:05:39.380Z,99172.27
2018-08-19T07:08:08.293Z,99175.53
2018-08-19T07:10:41.805Z,99176.69
2018-08-19T07:13:13.373Z,99174.66
2018-08-19T07:15:43.456Z,99178.55
2018-08-19T07:18:14.395Z,99187.16
2018-08-19T07:20:44.134Z,99176.59
2018-08-19T07:23:13.506Z,99182.25
2018-08-19T07:25:43.656Z,99181.64
2018-08-19T07:28:13.773Z,99183.81
2018-08-19T07:30:43.102Z,99178.50
2018-08-19T07:33:12.863Z,99185.08
2018-08-19T07:35:41.873Z,99181.03
2018-08-19T07:38:11.918Z,99178.86
2018-08-19T07:40:40.824Z,99187.98
2018-08-19T07:43:09.825Z,99179.75
2018-08-19T07:45:38.834Z,99183.60
2018-08-19T07:48:07.938Z,99179.42
2018-08-19T07:50:36.883Z,99173.39
2018-08-19T07:53:05.808Z,99182.06
2018-08-19T07:55:34.780Z,99176.50
2018-08-19T07:58:03.834Z,99185.16
2018-08-19T08:00:37.826Z,99181.41
2018-08-19T08:03:06.882Z,99176.19
2018-08-19T08:05:50.258Z,99179.29
2018-08-19T08:08:19.230Z,99166.80
2018-08-19T08:10:48.257Z,99172.75
2018-08-19T08:13:17.175Z,99172.70
2018-08-19T08:15:51.092Z,99170.17
2018-08-19T08:18:20.173Z,99163.17
2018-08-19T08:20:49.628Z,99168.36
2018-08-19T08:23:23.209Z,99166.40
2018-08-19T08:25:52.131Z,99161.42
2018-08-19T08:28:21.210Z,99161.53
2018-08-19T08:30:50.281Z,99161.19
2018-08-19T08:33:19.300Z,99164.34
2018-08-19T08:35:55.515Z,99162.20
2018-08-19T08:38:24.485Z,99158.61
2018-08-19T08:40:54.282Z,99153.17
2018-08-19T08:43:23.417Z,99151.82
2018-08-19T08:45:52.712Z,99151.00
2018-08-19T08:48:22.357Z,99156.20
2018-08-19T08:50:51.311Z,99154.86
2018-08-19T08:53:20.259Z,99147.50
2018-08-19T08:55:49.287Z,99144.08
2018-08-19T08:58:19.201Z,99142.67
2018-08-19T09:00:48.791Z,99144.59
2018-08-19T09:03:17.739Z,99145.69
2018-08-19T09:05:46.939Z,99146.02
2018-08-19T09:08:15.990Z,99141.20
2018-08-19T09:10:45.166Z,99146.36
2018-08-19T09:13:14.373Z,99139.08
2018-08-19T09:15:43.425Z,99147.65
2018-08-19T09:18:12.433Z,99131.87
2018-08-19T09:20:41.346Z,99131.28
2018-08-19T09:23:10.416Z,99139.20
2018-08-19T09:25:39.845Z,99127.64
2018-08-19T09:28:08.920Z,99123.46
2018-08-19T09:30:40.313Z,99121.67
2018-08-19T09:33:09.664Z,99124.36
2018-08-19T09:35:39.635Z,99128.16
2018-08-19T09:38:23.659Z,99123.08
2018-08-19T09:40:53.048Z,99123.31
2018-08-19T09:43:22.046Z,99125.28
2018-08-19T09:45:51.041Z,99124.30
2018-08-19T09:48:20.033Z,99121.09
2018-08-19T09:50:49.038Z,99116.92
2018-08-19T09:53:18.128Z,99115.96
2018-08-19T09:55:53.028Z,99111.66
2018-08-19T09:58:22.783Z,99116.35
2018-08-19T10:00:57.473Z,99109.88
2018-08-19T10:03:26.480Z,99106.70
2018-08-19T10:05:55.424Z,99104.09
2018-08-19T10:08:24.837Z,99106.79
2018-08-19T10:10:53.901Z,99101.48
2018-08-19T10:13:22.966Z,99097.75
2018-08-19T10:15:51.942Z,99096.80
2018-08-19T10:18:20.870Z,99092.95
2018-08-19T10:20:50.009Z,99088.28
2018-08-19T10:23:19.018Z,99083.08
2018-08-19T10:25:48.090Z,99083.00
2018-08-19T10:28:17.187Z,99091.06
2018-08-19T10:30:51.483Z,99086.75
2018-08-19T10:33:22.131Z,99082.43
2018-08-19T10:35:51.388Z,99085.00
2018-08-19T10:38:20.622Z,99083.62
2018-08-19T10:41:04.690Z,99075.12
2018-08-19T10:43:33.807Z,99071.81
2018-08-19T10:46:03.063Z,99070.41
2018-08-19T10:48:32.139Z,99072.20
2018-08-19T10:51:03.598Z,99069.06
2018-08-19T10:53:32.789Z,99064.65
2018-08-19T10:56:03.220Z,99064.33
2018-08-19T10:58:32.383Z,99059.56
2018-08-19T11:01:01.512Z,99059.67
2018-08-19T11:03:32.066Z,99047.39
2018-08-19T11:06:01.272Z,99048.69
2018-08-19T11:08:30.446Z,99044.72
2018-08-19T11:11:00.492Z,99044.97
2018-08-19T11:13:29.618Z,99035.83
2018-08-19T11:15:59.317Z,99038.47
2018-08-19T11:18:40.681Z,99037.95
2018-08-19T11:21:11.470Z,99028.45
2018-08-19T11:23:42.102Z,99024.79
2018-08-19T11:26:11.898Z,99023.28
2018-08-19T11:28:42.964Z,99026.89
2018-08-19T11:31:19.983Z,99021.19
2018-08-19T11:33:49.375Z,99012.67
2018-08-19T11:36:18.606Z,99008.25
2018-08-19T11:38:52.641Z,99011.72
2018-08-19T11:41:21.677Z,99004.45
2018-08-19T11:43:51.165Z,99009.46
2018-08-19T11:46:20.161Z,99005.59
2018-08-19T11:48:57.187Z,99006.03
2018-08-19T11:51:41.090Z,98997.73
2018-08-19T11:54:11.311Z,98990.92
2018-08-19T11:56:41.367Z,98991.72
2018-08-19T11:59:10.405Z,98997.11
2018-08-19T12:01:39.349Z,98988.23
2018-08-19T12:04:10.179Z,98984.77
2018-08-19T12:06:39.573Z,98985.32
2018-08-19T12:09:10.748Z,98987.28
2018-08-19T12:11:41.727Z,98973.82
2018-08-19T12:14:12.992Z,98980.22
2018-08-19T12:16:50.240Z,98975.02
2018-08-19T12:19:34.479Z,98968.50
2018-08-19T12:22:04.293Z,98978.23
2018-08-19T12:24:37.024Z,98981.22
2018-08-19T12:27:07.604Z,98969.35
2018-08-19T12:29:38.516Z,98962.80
2018-08-19T12:32:18.811Z,98967.42
2018-08-19T12:34:50.888Z,98962.52
2018-08-19T12:37:21.205Z,98955.95
2018-08-19T12:39:50.551Z,98963.64
2018-08-19T12:42:19.483Z,98950.55
2018-08-19T12:44:51.743Z,98948.78
2018-08-19T12:47:25.970Z,98947.10
2018-08-19T12:49:59.347Z,98935.16
2018-08-19T12:52:30.328Z,98937.70
2018-08-19T12:55:03.599Z,98941.98
2018-08-19T12:57:32.696Z,98936.33
2018-08-19T13:00:18.181Z,98930.17
2018-08-19T13:02:48.922Z,98928.55
2018-08-19T13:05:18.777Z,98936.24
2018-08-19T13:07:47.836Z,98947.92
2018-08-19T13:10:17.135Z,98942.26
2018-08-19T13:13:03.254Z,98948.89
2018-08-19T13:15:32.246Z,98953.06
2018-08-19T13:18:01.177Z,98946.20
2018-08-19T13:20:30.989Z,98948.00
2018-08-19T13:23:06.472Z,98943.25
2018-08-19T13:25:35.361Z,98935.45
2018-08-19T13:28:04.356Z,98928.03
2018-08-19T13:30:33.419Z,98943.19
2018-08-19T13:33:02.475Z,98944.23
2018-08-19T13:35:31.435Z,98940.72
2018-08-19T13:38:00.309Z,98939.33
2018-08-19T13:40:29.245Z,98945.99
2018-08-19T13:42:58.839Z,98934.58
2018-08-19T13:45:27.993Z,98933.20
2018-08-19T13:47:57.016Z,98930.66
2018-08-19T13:50:25.995Z,98929.09
2018-08-19T13:52:54.892Z,98932.03
2018-08-19T13:55:24.255Z,98926.94
2018-08-19T13:57:54.501Z,98923.53
2018-08-19T14:00:24.491Z,98925.55
2018-08-19T14:02:54.211Z,98918.23
2018-08-19T14:05:23.104Z,98917.39
2018-08-19T14:07:51.949Z,98915.11
2018-08-19T14:10:20.877Z,98913.19
2018-08-19T14:12:49.733Z,98917.38
2018-08-19T14:15:18.564Z,98910.56
2018-08-19T14:17:47.459Z,98904.23
2018-08-19T14:20:16.341Z,98901.95
2018-08-19T14:22:45.193Z,98899.95
2018-08-19T14:25:14.237Z,98894.00
2018-08-19T14:27:43.133Z,98892.31
2018-08-19T14:30:12.736Z,98891.50
2018-08-19T14:32:44.300Z,98893.06
2018-08-19T14:35:13.281Z,98895.14
2018-08-19T14:37:42.272Z,98894.30
2018-08-19T14:40:16.620Z,98896.45
2018-08-19T14:42:46.007Z,98892.38
2018-08-19T14:45:15.099Z,98893.13
2018-08-19T14:47:44.132Z,98892.67
2018-08-19T14:50:15.688Z,98898.55
2018-08-19T14:52:44.724Z,98892.83
2018-08-19T14:55:13.621Z,98890.73
2018-08-19T14:57:42.630Z,98890.97
2018-08-19T15:00:13.571Z,98887.05
2018-08-19T15:02:42.563Z,98893.39
2018-08-19T15:05:15.717Z,98889.35
2018-08-19T15:07:44.945Z,98884.95
2018-08-19T15:10:19.234Z,98884.50
2018-08-19T15:12:48.151Z,98884.44
2018-08-19T15:15:17.045Z,98885.38
2018-08-19T15:17:51.325Z,98888.16
2018-08-19T15:20:26.358Z,98885.75
2018-08-19T15:23:15.379Z,98898.84
2018-08-19T15:25:44.397Z,98942.25
2018-08-19T15:28:13.267Z,98943.72
2018-08-19T15:30:44.186Z,98940.01
2018-08-19T15:33:14.010Z,98939.13
2018-08-19T15:35:43.366Z,98950.48
2018-08-19T15:38:12.703Z,98953.52
2018-08-19T15:40:46.391Z,98960.12
2018-08-19T15:43:15.400Z,98959.52
2018-08-19T15:45:45.034Z,98970.22
2018-08-19T15:48:13.988Z,98976.47
2018-08-19T15:50:43.173Z,98982.93
2018-08-19T15:53:12.251Z,98994.61
2018-08-19T15:55:41.341Z,98989.00
2018-08-19T15:58:10.426Z,98990.00
2018-08-19T16:00:41.359Z,98951.28
2018-08-19T16:03:11.755Z,98962.37
2018-08-19T16:05:40.857Z,98960.28
2018-08-19T16:08:09.993Z,98948.14
2018-08-19T16:10:39.007Z,98944.82
2018-08-19T16:13:09.913Z,98895.31
2018-08-19T16:15:38.984Z,98940.80
2018-08-19T16:18:08.489Z,98937.64
2018-08-19T16:20:37.523Z,98932.75
2018-08-19T16:23:06.548Z,98926.62
2018-08-19T16:25:35.648Z,98925.67
2018-08-19T16:28:05.076Z,98923.91
2018-08-19T16:30:34.140Z,98918.66
2018-08-19T16:33:03.065Z,98911.08
2018-08-19T16:35:32.013Z,98913.17
2018-08-19T16:38:00.945Z,98913.49
2018-08-19T16:40:31.030Z,98916.30
2018-08-19T16:42:59.925Z,98920.29
2018-08-19T16:45:28.829Z,98916.86
2018-08-19T16:47:57.768Z,98913.00
2018-08-19T16:50:26.743Z,98923.61
2018-08-19T16:52:55.574Z,98921.20
2018-08-19T16:55:24.532Z,98920.73
2018-08-19T16:57:53.461Z,98920.70
2018-08-19T17:00:22.353Z,98923.23
2018-08-19T17:02:51.418Z,98921.27
2018-08-19T17:05:32.642Z,98927.87
2018-08-19T17:08:01.604Z,98924.26
2018-08-19T17:10:30.827Z,98926.39
2018-08-19T17:12:59.733Z,98927.77
2018-08-19T17:15:29.163Z,98935.63
2018-08-19T17:17:58.202Z,98930.80
2018-08-19T17:20:27.194Z,98926.95
2018-08-19T17:22:56.158Z,98904.94
2018-08-19T17:25:25.102Z,98925.45
2018-08-19T17:27:54.129Z,98929.43
2018-08-19T17:30:23.059Z,98931.30
2018-08-19T17:32:56.275Z,98965.03
2018-08-19T17:35:25.153Z,98960.98
2018-08-19T17:37:54.337Z,98965.25
2018-08-19T17:40:23.275Z,98969.51
2018-08-19T17:42:52.182Z,98981.44
2018-08-19T17:45:21.057Z,98981.67
2018-08-19T17:47:49.971Z,98983.81
2018-08-19T17:50:23.317Z,98977.10
2018-08-19T17:52:52.206Z,98968.77
2018-08-19T17:55:21.565Z,98973.59
2018-08-19T17:57:50.591Z,98974.80
2018-08-19T18:00:19.518Z,98976.78
2018-08-19T18:02:48.484Z,98976.04
2018-08-19T18:05:17.435Z,98975.61
2018-08-19T18:07:52.285Z,98972.97
2018-08-19T18:10:21.328Z,98984.16
2018-08-19T18:12:50.392Z,98986.55
2018-08-19T18:15:19.354Z,98986.71
2018-08-19T18:17:55.521Z,98988.54
2018-08-19T18:20:29.388Z,98991.73
2018-08-19T18:22:58.760Z,98989.73
2018-08-19T18:25:27.693Z,98994.10
2018-08-19T18:27:56.571Z,98991.39
2018-08-19T18:30:26.754Z,98995.37
2018-08-19T18:32:55.603Z,98996.77
2018-08-19T18:35:24.573Z,98996.24
2018-08-19T18:37:53.590Z,99002.77
2018-08-19T18:40:32.580Z,99003.95
2018-08-19T18:43:02.257Z,99004.44
2018-08-19T18:45:31.648Z,99004.06
2018-08-19T18:48:01.066Z,99008.98
2018-08-19T18:50:30.067Z,99007.72
2018-08-19T18:52:58.947Z,99006.87
2018-08-19T18:55:28.458Z,99007.02
2018-08-19T18:57:57.855Z,99007.92
2018-08-19T19:00:27.660Z,99008.58
2018-08-19T19:02:58.601Z,99009.44
2018-08-19T19:05:35.840Z,99007.67
2018-08-19T19:08:12.703Z,99008.00
2018-08-19T19:10:50.025Z,99014.45
2018-08-19T19:13:21.630Z,99015.58
2018-08-19T19:15:50.631Z,99017.00
2018-08-19T19:18:19.769Z,99010.28
2018-08-19T19:21:07.547Z,99014.27
2018-08-19T19:23:37.823Z,99015.30
2018-08-19T19:26:08.486Z,99012.14
2018-08-19T19:28:37.481Z,99014.84
2018-08-19T19:31:11.677Z,99001.52
2018-08-19T19:33:40.595Z,99023.30
2018-08-19T19:36:14.944Z,99021.33
2018-08-19T19:38:59.177Z,99015.80
2018-08-19T19:41:32.063Z,99015.66
2018-08-19T19:44:14.729Z,99013.73
2018-08-19T19:46:43.738Z,99012.47
2018-08-19T19:49:12.611Z,99012.80
2018-08-19T19:51:42.308Z,99011.53
2018-08-19T19:54:11.615Z,99004.23
2018-08-19T19:56:40.557Z,99006.10
2018-08-19T19:59:09.513Z,99009.66
2018-08-19T20:01:38.438Z,99008.46
2018-08-19T20:04:07.373Z,99002.66
2018-08-19T20:06:36.253Z,99013.06
2018-08-19T20:09:05.394Z,99008.39
2018-08-19T20:11:34.728Z,99003.36
2018-08-19T20:14:03.686Z,99010.87
2018-08-19T20:16:32.625Z,99015.12
2018-08-19T20:19:01.569Z,99011.70
2018-08-19T20:21:33.889Z,99015.97
2018-08-19T20:24:02.858Z,99014.02
2018-08-19T20:26:31.768Z,99015.72
2018-08-19T20:29:01.995Z,99015.45
2018-08-19T20:31:30.916Z,99019.19
2018-08-19T20:33:59.864Z,99013.36
2018-08-19T20:36:28.894Z,99017.73
2018-08-19T20:38:57.905Z,99021.41
2018-08-19T20:41:26.768Z,99031.45
2018-08-19T20:43:55.676Z,99028.07
2018-08-19T20:46:24.609Z,99033.91
2018-08-19T20:48:53.548Z,99034.86
2018-08-19T20:51:22.560Z,99041.14
2018-08-19T20:53:51.450Z,99041.27
2018-08-19T20:56:20.345Z,99044.45
2018-08-19T20:58:49.261Z,99047.50
2018-08-19T21:01:23.183Z,99061.64
2018-08-19T21:03:52.035Z,99054.48
2018-08-19T21:06:20.915Z,99045.41
2018-08-19T21:08:49.790Z,99046.68
2018-08-19T21:11:19.522Z,99054.70
2018-08-19T21:13:48.382Z,99054.66
2018-08-19T21:16:17.318Z,99058.21
2018-08-19T21:18:46.222Z,99052.97
2018-08-19T21:21:15.095Z,99063.05
2018-08-19T21:23:43.959Z,99059.96
2018-08-19T21:26:12.922Z,99056.13
2018-08-19T21:28:44.111Z,99050.92
2018-08-19T21:31:12.969Z,99052.15
2018-08-19T21:33:41.811Z,99054.14
2018-08-19T21:36:10.629Z,99051.29
2018-08-19T21:38:39.551Z,99052.97
2018-08-19T21:41:08.431Z,99050.01
2018-08-19T21:43:37.271Z,99048.97
2018-08-19T21:46:06.293Z,99050.69
2018-08-19T21:48:35.255Z,99041.17
2018-08-19T21:51:04.115Z,99043.67
2018-08-19T21:53:32.982Z,99043.10
2018-08-19T21:56:01.876Z,99049.98
2018-08-19T21:58:30.937Z,99045.12
2018-08-19T22:01:02.327Z,99046.75
2018-08-19T22:03:36.406Z,99041.81
2018-08-19T22:06:08.689Z,99038.77
2018-08-19T22:08:37.570Z,99035.77
2018-08-19T22:11:06.500Z,99030.83
2018-08-19T22:13:35.400Z,99030.50
2018-08-19T22:16:04.388Z,99033.23
2018-08-19T22:18:33.290Z,99025.50
2018-08-19T22:21:15.536Z,99030.70
2018-08-19T22:23:46.771Z,99036.51
2018-08-19T22:26:16.933Z,99029.16
2018-08-19T22:28:46.462Z,99031.05
2018-08-19T22:31:26.115Z,99022.29
2018-08-19T22:33:58.265Z,99024.39
2018-08-19T22:36:27.267Z,99025.14
2018-08-19T22:38:56.956Z,99023.56
2018-08-19T22:41:27.353Z,99015.90
2018-08-19T22:43:56.876Z,99013.45
2018-08-19T22:46:26.670Z,99007.96
2018-08-19T22:48:55.958Z,99008.48
2018-08-19T22:51:24.914Z,99008.73
2018-08-19T22:53:55.272Z,99001.34
2018-08-19T22:56:24.335Z,99003.78
2018-08-19T22:58:53.257Z,99008.72
2018-08-19T23:01:22.528Z,99006.23
2018-08-19T23:03:59.925Z,98999.94
2018-08-19T23:06:29.642Z,98997.48
2018-08-19T23:08:58.646Z,98997.18
2018-08-19T23:11:35.623Z,98988.39
2018-08-19T23:14:15.630Z,98987.00
2018-08-19T23:16:44.573Z,98981.53
2018-08-19T23:19:13.472Z,98981.27
2018-08-19T23:21:42.372Z,98981.78
2018-08-19T23:24:11.337Z,98983.57
2018-08-19T23:26:40.205Z,98983.69
2018-08-19T23:29:09.130Z,98986.06
2018-08-19T23:31:38.080Z,98986.02
2018-08-19T23:34:07.054Z,98978.13
2018-08-19T23:36:35.982Z,98978.55
2018-08-19T23:39:06.187Z,98976.06
2018-08-19T23:41:35.091Z,98976.64
2018-08-19T23:44:04.011Z,98980.21
2018-08-19T23:46:32.921Z,98976.23
2018-08-19T23:49:01.887Z,98980.83
2018-08-19T23:51:32.302Z,98982.23
2018-08-19T23:54:02.679Z,98986.11
2018-08-19T23:56:31.964Z,98986.64
2018-08-19T23:59:01.189Z,98975.35
